Time;durP1;ratioP1;P1;durP2;ratioP2;P2;SDS_P1;SDS_P2;PMS_P1;PMS_P2;Temp;Humidity;BMP_temperature;BMP_pressure;BME280_temperature;BME280_humidity;BME280_pressure;Samples;Min_cycle;Max_cycle;Signal;HPM_P1;HPM_P2
2022/11/14 00:00:52;;;;;;;4.95;0.90;;;28.80;44.30;;;;;;5032511;28;20033;-58
2022/11/14 00:03:19;;;;;;;1.73;0.40;;;28.40;44.30;;;;;;5031474;28;20497;-57
2022/11/14 00:05:47;;;;;;;7.80;0.70;;;28.30;44.60;;;;;;5033483;28;20026;-58
2022/11/14 00:08:27;;;;;;;5.57;0.40;;;28.00;45.80;;;;;;5030075;28;20017;-59
2022/11/14 00:10:54;;;;;;;1.25;0.20;;;27.90;46.90;;;;;;5030634;28;20018;-59
2022/11/14 00:13:21;;;;;;;6.47;0.38;;;28.00;46.80;;;;;;5044516;28;20052;-59
2022/11/14 00:15:53;;;;;;;2.95;0.50;;;28.00;47.50;;;;;;5030354;28;20056;-58
2022/11/14 00:18:21;;;;;;;0.98;0.30;;;28.00;45.20;;;;;;5027067;28;20018;-58
2022/11/14 00:20:52;;;;;;;0.75;0.30;;;28.00;46.70;;;;;;5028269;28;20068;-60
2022/11/14 00:23:21;;;;;;;1.48;0.40;;;28.00;46.60;;;;;;5028906;28;20385;-58
2022/11/14 00:25:48;;;;;;;3.53;0.32;;;28.10;45.90;;;;;;5028218;28;20057;-59
2022/11/14 00:28:16;;;;;;;6.25;0.90;;;28.30;46.90;;;;;;5028206;28;20482;-58
2022/11/14 00:30:49;;;;;;;5.00;0.50;;;28.50;46.90;;;;;;5028666;28;20035;-58
2022/11/14 00:33:18;;;;;;;2.03;0.20;;;28.80;47.90;;;;;;5027816;28;20025;-63
2022/11/14 00:35:55;;;;;;;1.38;0.38;;;28.90;47.20;;;;;;5028023;28;20115;-57
2022/11/14 00:38:23;;;;;;;1.20;0.63;;;28.90;46.50;;;;;;5023571;28;20025;-60
2022/11/14 00:40:51;;;;;;;1.27;0.30;;;28.90;45.80;;;;;;5023933;28;20029;-58
2022/11/14 00:43:18;;;;;;;3.00;0.40;;;28.80;45.30;;;;;;5026315;28;20032;-58
2022/11/14 00:45:46;;;;;;;1.35;0.30;;;28.50;46.10;;;;;;5021777;28;20025;-59
2022/11/14 00:48:14;;;;;;;1.65;0.50;;;28.60;46.70;;;;;;5026095;28;20025;-59
2022/11/14 00:50:43;;;;;;;1.98;0.40;;;28.90;46.60;;;;;;5024552;28;20021;-59
2022/11/14 00:53:10;;;;;;;1.45;0.30;;;29.00;44.70;;;;;;5025235;28;20116;-59
2022/11/14 00:55:38;;;;;;;5.65;0.93;;;28.80;44.80;;;;;;5027564;28;20032;-60
2022/11/14 00:58:05;;;;;;;2.13;0.60;;;28.90;46.00;;;;;;5028009;28;20356;-60
2022/11/14 01:00:32;;;;;;;2.75;0.25;;;29.10;44.90;;;;;;5025363;28;20018;-60
2022/11/14 01:03:00;;;;;;;2.00;0.28;;;29.00;44.70;;;;;;5027761;28;20025;-58
2022/11/14 01:05:27;;;;;;;1.67;0.20;;;28.90;44.60;;;;;;5025569;28;20029;-58
2022/11/14 01:07:57;;;;;;;1.17;0.50;;;28.90;44.60;;;;;;5023800;28;20542;-58
2022/11/14 01:10:24;;;;;;;1.67;0.70;;;28.80;45.00;;;;;;5027348;28;20119;-58
2022/11/14 01:12:51;;;;;;;2.50;0.25;;;28.70;43.20;;;;;;5025379;28;20048;-58
2022/11/14 01:15:18;;;;;;;1.85;0.25;;;28.80;43.60;;;;;;5039255;28;20018;-58
2022/11/14 01:17:46;;;;;;;1.90;0.40;;;28.70;44.40;;;;;;5036198;28;20025;-58
2022/11/14 01:20:13;;;;;;;1.35;0.30;;;29.00;46.10;;;;;;5033387;28;20025;-58
2022/11/14 01:22:40;;;;;;;2.15;0.32;;;29.20;44.50;;;;;;5021516;28;20402;-59
2022/11/14 01:25:08;;;;;;;1.60;0.30;;;29.40;45.00;;;;;;5019735;28;20024;-59
2022/11/14 01:27:35;;;;;;;2.42;0.30;;;29.20;43.60;;;;;;5029718;28;20033;-58
2022/11/14 01:30:03;;;;;;;3.03;0.40;;;29.10;43.20;;;;;;5028642;28;20075;-57
2022/11/14 01:32:30;;;;;;;2.28;0.45;;;29.20;45.40;;;;;;5026839;28;20658;-60
2022/11/14 01:34:57;;;;;;;1.25;0.30;;;29.10;43.80;;;;;;5025746;28;20177;-59
2022/11/14 01:37:25;;;;;;;2.88;0.98;;;29.10;43.00;;;;;;5028328;28;20021;-60
2022/11/14 01:39:52;;;;;;;1.52;0.30;;;29.40;44.10;;;;;;5040238;28;20029;-59
2022/11/14 01:42:19;;;;;;;1.00;0.30;;;29.60;44.00;;;;;;5008237;28;20036;-59
2022/11/14 01:44:55;;;;;;;3.75;0.40;;;29.60;43.60;;;;;;5031310;28;20044;-67
2022/11/14 01:47:26;;;;;;;4.70;0.20;;;29.70;44.50;;;;;;5034464;28;20035;-59
2022/11/14 01:49:58;;;;;;;0.32;0.17;;;30.00;45.30;;;;;;5030812;28;20092;-57
2022/11/14 01:52:33;;;;;;;1.42;0.50;;;30.20;45.00;;;;;;5041939;28;20130;-58
2022/11/14 01:55:02;;;;;;;2.60;0.40;;;30.40;44.60;;;;;;5026029;28;20034;-58
2022/11/14 01:57:35;;;;;;;1.30;0.55;;;30.30;42.70;;;;;;5024128;28;20402;-58
2022/11/14 02:00:07;;;;;;;1.08;0.45;;;30.30;43.20;;;;;;5035851;28;20393;-57
2022/11/14 02:02:35;;;;;;;2.70;0.50;;;30.20;42.70;;;;;;5026935;28;20104;-58
2022/11/14 02:05:09;;;;;;;0.45;0.20;;;30.20;42.70;;;;;;5032401;28;20029;-58
2022/11/14 02:07:39;;;;;;;0.57;0.30;;;30.00;42.40;;;;;;5032069;28;20036;-58
2022/11/14 02:10:10;;;;;;;0.75;0.25;;;29.80;42.70;;;;;;5033275;28;20052;-54
2022/11/14 02:12:38;;;;;;;1.15;0.20;;;29.60;43.50;;;;;;5036867;28;20091;-54
2022/11/14 02:15:05;;;;;;;1.45;0.30;;;29.50;43.30;;;;;;5029365;28;20075;-56
2022/11/14 02:17:33;;;;;;;5.60;0.47;;;29.60;42.90;;;;;;5033453;28;20171;-54
2022/11/14 02:20:06;;;;;;;0.73;0.20;;;29.20;42.30;;;;;;5036146;28;20115;-55
2022/11/14 02:22:33;;;;;;;1.80;0.30;;;29.40;44.10;;;;;;5044823;28;20390;-55
2022/11/14 02:25:01;;;;;;;3.75;0.50;;;29.70;45.10;;;;;;5047592;28;20444;-55
2022/11/14 02:27:29;;;;;;;0.75;0.22;;;30.10;42.80;;;;;;5024807;28;20104;-53
2022/11/14 02:30:05;;;;;;;3.10;1.05;;;29.80;43.70;;;;;;5028525;28;20027;-53
2022/11/14 02:32:32;;;;;;;1.55;0.30;;;29.30;42.70;;;;;;5029038;28;20131;-54
2022/11/14 02:34:59;;;;;;;1.83;0.25;;;29.20;43.50;;;;;;5032069;28;20018;-54
2022/11/14 02:37:26;;;;;;;1.55;0.30;;;29.40;44.50;;;;;;5032684;28;20017;-56
2022/11/14 02:39:53;;;;;;;1.05;0.30;;;29.40;42.50;;;;;;5043442;28;20029;-52
2022/11/14 02:42:21;;;;;;;4.05;0.30;;;29.40;41.60;;;;;;5031734;28;20030;-53
2022/11/14 02:44:48;;;;;;;3.92;0.38;;;29.20;41.60;;;;;;5044423;28;20029;-54
2022/11/14 02:47:15;;;;;;;1.30;0.35;;;29.20;43.50;;;;;;5032586;28;20017;-56
2022/11/14 02:49:42;;;;;;;1.10;0.20;;;29.40;43.70;;;;;;5034422;28;20112;-52
2022/11/14 02:52:09;;;;;;;3.20;0.45;;;29.50;42.90;;;;;;5020935;28;20041;-56
2022/11/14 02:54:37;;;;;;;3.58;0.40;;;29.20;42.40;;;;;;5030874;28;20124;-52
2022/11/14 02:57:04;;;;;;;1.42;0.28;;;29.10;43.20;;;;;;5028567;28;20029;-56
2022/11/14 02:59:31;;;;;;;0.75;0.30;;;28.80;44.50;;;;;;5033882;28;20027;-53
2022/11/14 03:01:58;;;;;;;0.52;0.30;;;28.90;44.60;;;;;;5036449;28;20029;-53
2022/11/14 03:04:25;;;;;;;2.80;0.40;;;28.70;44.70;;;;;;5029295;28;20021;-51
2022/11/14 03:06:53;;;;;;;2.60;0.20;;;28.80;45.90;;;;;;5024595;28;20029;-55
2022/11/14 03:09:20;;;;;;;0.75;0.32;;;28.30;45.30;;;;;;5027526;28;20034;-56
2022/11/14 03:11:47;;;;;;;5.50;0.85;;;28.50;49.10;;;;;;5036211;28;20520;-54
2022/11/14 03:14:14;;;;;;;4.68;0.50;;;28.60;47.00;;;;;;5035806;28;20021;-56
2022/11/14 03:16:42;;;;;;;1.63;0.30;;;28.80;49.50;;;;;;5029928;28;20048;-58
2022/11/14 03:19:09;;;;;;;3.97;0.30;;;29.00;47.70;;;;;;5027356;28;20033;-55
2022/11/14 03:21:36;;;;;;;1.20;0.22;;;29.40;46.70;;;;;;5036908;28;20033;-52
2022/11/14 03:24:03;;;;;;;0.30;0.10;;;29.40;46.50;;;;;;5036078;28;20060;-53
2022/11/14 03:26:31;;;;;;;6.18;0.40;;;29.30;46.90;;;;;;5041984;28;20033;-53
2022/11/14 03:28:58;;;;;;;1.35;0.80;;;29.40;48.00;;;;;;5036092;28;20021;-53
2022/11/14 03:31:25;;;;;;;0.57;0.15;;;29.40;46.40;;;;;;5043157;28;20033;-56
2022/11/14 03:33:52;;;;;;;2.85;0.32;;;29.50;46.50;;;;;;5039740;28;20051;-55
2022/11/14 03:36:20;;;;;;;5.57;0.50;;;29.40;45.70;;;;;;5037157;28;20443;-56
2022/11/14 03:38:47;;;;;;;4.28;0.38;;;29.40;47.70;;;;;;5029948;28;20037;-57
2022/11/14 03:41:14;;;;;;;3.55;0.30;;;29.50;45.40;;;;;;5039372;28;20025;-57
2022/11/14 03:43:42;;;;;;;1.85;0.30;;;29.40;45.20;;;;;;5042145;28;20481;-56
2022/11/14 03:46:09;;;;;;;2.15;0.93;;;29.40;45.70;;;;;;5028711;28;20032;-54
2022/11/14 03:48:36;;;;;;;0.90;0.43;;;29.30;46.40;;;;;;5028342;28;20029;-54
2022/11/14 03:51:06;;;;;;;5.13;0.32;;;29.20;46.40;;;;;;5027452;28;20430;-60
2022/11/14 03:53:33;;;;;;;0.50;0.20;;;29.20;46.60;;;;;;5044560;28;20060;-54
2022/11/14 03:56:01;;;;;;;2.25;0.20;;;29.30;46.00;;;;;;5037566;28;20021;-57
2022/11/14 03:58:28;;;;;;;2.03;0.38;;;29.30;46.40;;;;;;5037098;28;20036;-56
2022/11/14 04:00:55;;;;;;;2.90;0.40;;;29.30;46.20;;;;;;5036422;28;20095;-57
2022/11/14 04:03:24;;;;;;;6.63;0.80;;;29.20;46.20;;;;;;5045806;28;20497;-57
2022/11/14 04:05:51;;;;;;;1.67;0.30;;;29.20;46.20;;;;;;5031801;28;20079;-57
2022/11/14 04:08:18;;;;;;;3.50;0.30;;;29.30;45.90;;;;;;5037487;28;20078;-57
2022/11/14 04:10:48;;;;;;;1.20;0.60;;;29.10;46.60;;;;;;5029523;28;20075;-56
2022/11/14 04:13:16;;;;;;;0.52;0.15;;;29.30;46.20;;;;;;5028295;28;20033;-57
2022/11/14 04:15:43;;;;;;;1.95;0.22;;;29.30;46.40;;;;;;5026229;28;20029;-56
2022/11/14 04:18:10;;;;;;;3.83;0.52;;;29.20;44.60;;;;;;5033994;28;20424;-59
2022/11/14 04:33:29;;;;;;;2.15;0.50;;;29.10;45.30;;;;;;5050235;27;20418;-66
2022/11/14 04:35:56;;;;;;;4.10;0.43;;;29.10;45.50;;;;;;5044653;28;20546;-66
2022/11/14 04:38:23;;;;;;;1.70;0.47;;;29.00;46.50;;;;;;5045119;28;20458;-65
2022/11/14 04:40:52;;;;;;;1.50;0.35;;;29.00;45.90;;;;;;5048396;28;20031;-66
2022/11/14 04:43:20;;;;;;;1.45;0.40;;;29.00;46.00;;;;;;5044953;28;20040;-66
2022/11/14 04:45:47;;;;;;;1.85;0.22;;;29.20;46.80;;;;;;5045127;28;20029;-67
2022/11/14 04:48:14;;;;;;;1.33;0.43;;;29.10;44.60;;;;;;5047227;28;20056;-66
2022/11/14 04:50:42;;;;;;;0.88;0.60;;;29.10;45.40;;;;;;5043065;28;20035;-66
2022/11/14 04:53:09;;;;;;;2.53;0.40;;;29.20;46.00;;;;;;5051267;28;20029;-67
2022/11/14 04:55:36;;;;;;;1.45;0.22;;;29.10;45.20;;;;;;5043608;28;20079;-67
2022/11/14 04:58:03;;;;;;;1.63;0.30;;;28.90;45.60;;;;;;5046998;28;20075;-68
2022/11/14 05:00:30;;;;;;;1.17;0.20;;;28.90;45.60;;;;;;5039332;28;20083;-67
2022/11/14 05:03:00;;;;;;;3.28;0.20;;;28.60;45.70;;;;;;5041740;28;20128;-67
2022/11/14 05:05:28;;;;;;;4.35;0.80;;;28.40;47.30;;;;;;5042046;28;20033;-67
2022/11/14 05:07:55;;;;;;;1.30;0.40;;;28.40;46.20;;;;;;5038877;28;20033;-67
2022/11/14 05:10:22;;;;;;;0.40;0.20;;;28.40;46.50;;;;;;5053257;28;20021;-67
2022/11/14 05:12:53;;;;;;;0.73;0.47;;;28.30;46.10;;;;;;5046181;28;20022;-68
2022/11/14 05:15:21;;;;;;;0.45;0.13;;;28.40;46.40;;;;;;5048519;28;20021;-68
2022/11/14 05:17:48;;;;;;;0.65;0.30;;;28.70;45.90;;;;;;5037789;28;20026;-68
2022/11/14 05:20:16;;;;;;;1.95;0.30;;;28.90;44.30;;;;;;5041869;28;20029;-67
2022/11/14 05:22:43;;;;;;;5.25;0.50;;;28.60;44.10;;;;;;5031072;28;20702;-68
2022/11/14 05:25:10;;;;;;;0.20;0.20;;;28.10;43.60;;;;;;5026884;28;20041;-67
2022/11/14 05:27:38;;;;;;;1.60;0.45;;;27.90;45.00;;;;;;5027428;28;20024;-68
2022/11/14 05:30:05;;;;;;;2.53;0.80;;;27.80;44.50;;;;;;5018886;28;20033;-68
2022/11/14 05:32:32;;;;;;;1.50;0.30;;;27.90;44.70;;;;;;5023912;28;20091;-67
2022/11/14 05:35:00;;;;;;;2.42;0.40;;;27.70;45.40;;;;;;5014692;28;20030;-68
2022/11/14 05:37:27;;;;;;;1.67;0.30;;;27.50;43.80;;;;;;5015010;28;20033;-67
2022/11/14 05:39:54;;;;;;;5.32;0.93;;;27.30;44.20;;;;;;5010035;28;20034;-67
2022/11/14 05:42:21;;;;;;;3.05;0.45;;;27.20;44.50;;;;;;5028295;28;20398;-67
2022/11/14 05:44:49;;;;;;;0.77;0.30;;;27.00;45.00;;;;;;5016503;28;20013;-68
2022/11/14 05:47:16;;;;;;;2.72;0.30;;;26.80;45.30;;;;;;5019077;28;20068;-67
2022/11/14 05:49:43;;;;;;;1.95;0.32;;;26.80;46.00;;;;;;5019139;28;20021;-68
2022/11/14 05:52:11;;;;;;;1.42;0.30;;;27.00;44.80;;;;;;5011131;28;20026;-67
2022/11/14 05:54:38;;;;;;;2.00;0.50;;;27.20;44.00;;;;;;5012040;28;20414;-68
2022/11/14 05:57:05;;;;;;;2.75;0.30;;;27.20;44.50;;;;;;5013206;28;20054;-67
2022/11/14 05:59:33;;;;;;;0.60;0.20;;;27.10;43.90;;;;;;5011650;28;20028;-69
2022/11/14 06:02:00;;;;;;;3.47;0.30;;;26.90;42.90;;;;;;5004784;28;20107;-68
2022/11/14 06:04:27;;;;;;;0.73;0.30;;;26.70;43.10;;;;;;5011711;28;20055;-68
2022/11/14 06:06:54;;;;;;;1.85;0.20;;;26.60;43.90;;;;;;5013068;28;20479;-67
2022/11/14 06:09:22;;;;;;;1.55;0.40;;;26.50;44.50;;;;;;5007285;28;20065;-67
2022/11/14 06:11:49;;;;;;;1.60;0.30;;;26.70;44.30;;;;;;5017326;28;20028;-67
2022/11/14 06:14:16;;;;;;;0.43;0.20;;;26.70;43.00;;;;;;5027902;28;20029;-66
2022/11/14 06:16:43;;;;;;;1.15;0.40;;;26.70;43.90;;;;;;5016371;28;20021;-63
2022/11/14 06:19:10;;;;;;;1.60;0.20;;;26.60;44.20;;;;;;5020826;28;20037;-67
2022/11/14 06:21:38;;;;;;;1.45;0.40;;;26.50;44.30;;;;;;5011248;28;20109;-67
2022/11/14 06:24:05;;;;;;;1.35;0.25;;;26.40;44.70;;;;;;5013494;28;20036;-70
2022/11/14 06:26:33;;;;;;;1.98;0.55;;;26.20;45.00;;;;;;5012676;28;20096;-67
2022/11/14 06:29:00;;;;;;;1.13;0.30;;;26.40;45.90;;;;;;5019585;28;20097;-68
2022/11/14 06:31:28;;;;;;;1.05;0.22;;;26.40;45.00;;;;;;5010526;28;20394;-67
2022/11/14 06:33:55;;;;;;;0.80;0.30;;;26.30;45.10;;;;;;5011684;28;20064;-67
2022/11/14 06:36:23;;;;;;;1.55;0.28;;;26.30;45.60;;;;;;5008122;28;20115;-67
2022/11/14 06:38:50;;;;;;;2.17;0.30;;;26.30;45.80;;;;;;5010571;28;20030;-67
2022/11/14 06:41:21;;;;;;;1.40;0.52;;;26.20;44.50;;;;;;5020133;28;20045;-67
2022/11/14 06:43:51;;;;;;;0.98;0.43;;;26.20;44.60;;;;;;5012059;28;20071;-67
2022/11/14 06:46:21;;;;;;;2.95;0.32;;;26.30;45.30;;;;;;5018316;28;20477;-67
2022/11/14 06:48:49;;;;;;;1.33;0.38;;;26.30;45.00;;;;;;5016999;28;20381;-67
2022/11/14 06:51:17;;;;;;;0.98;0.30;;;26.30;45.40;;;;;;5032168;28;20033;-67
2022/11/14 06:53:45;;;;;;;2.10;0.45;;;26.30;45.90;;;;;;5024964;28;20068;-68
2022/11/14 06:56:14;;;;;;;1.35;0.40;;;26.40;44.90;;;;;;5018851;28;20750;-67
2022/11/14 06:58:44;;;;;;;0.10;0.10;;;26.60;44.80;;;;;;5016706;28;20033;-67
2022/11/14 07:01:14;;;;;;;1.60;0.20;;;26.50;45.10;;;;;;5019358;28;20353;-66
2022/11/14 07:03:43;;;;;;;1.50;0.30;;;26.30;44.90;;;;;;5021761;28;20245;-67
2022/11/14 07:06:12;;;;;;;0.63;0.40;;;26.10;45.00;;;;;;5011024;28;20033;-67
2022/11/14 07:08:40;;;;;;;0.88;0.20;;;26.00;45.50;;;;;;5019694;28;20018;-67
2022/11/14 07:11:09;;;;;;;0.28;0.17;;;25.80;45.40;;;;;;5016466;28;20035;-67
2022/11/14 07:13:37;;;;;;;0.32;0.30;;;25.40;46.30;;;;;;5013919;28;20443;-67
2022/11/14 07:16:05;;;;;;;3.08;0.22;;;25.20;46.30;;;;;;5015952;28;20564;-67
2022/11/14 07:18:33;;;;;;;0.47;0.22;;;25.20;47.90;;;;;;5012020;28;20018;-66
2022/11/14 07:21:03;;;;;;;0.40;0.20;;;25.20;47.10;;;;;;5014932;28;20402;-67
2022/11/14 07:23:32;;;;;;;0.20;0.20;;;25.20;47.70;;;;;;5006869;28;20030;-67
2022/11/14 07:26:06;;;;;;;3.75;0.30;;;25.00;47.00;;;;;;5014815;28;20038;-67
2022/11/14 07:28:38;;;;;;;0.20;0.20;;;24.80;48.70;;;;;;5002716;28;20025;-68
2022/11/14 07:31:11;;;;;;;4.07;0.30;;;24.70;47.90;;;;;;5007461;28;20049;-66
2022/11/14 07:33:40;;;;;;;3.22;0.50;;;24.60;47.50;;;;;;5020712;28;20443;-66
2022/11/14 07:36:08;;;;;;;1.23;0.40;;;24.40;47.80;;;;;;5008744;28;20368;-67
2022/11/14 07:38:36;;;;;;;2.95;0.47;;;24.40;48.10;;;;;;5006575;28;20037;-66
2022/11/14 07:41:07;;;;;;;1.90;0.30;;;24.40;48.30;;;;;;5007003;28;20068;-67
2022/11/14 07:43:34;;;;;;;2.10;0.30;;;24.30;49.10;;;;;;5003896;28;20045;-67
2022/11/14 07:46:07;;;;;;;3.30;0.28;;;24.30;49.30;;;;;;5001266;28;20041;-66
2022/11/14 07:48:34;;;;;;;1.63;0.28;;;24.20;47.80;;;;;;5012716;28;20538;-66
2022/11/14 07:51:03;;;;;;;0.45;0.30;;;24.20;48.10;;;;;;5022308;28;20087;-66
2022/11/14 07:53:30;;;;;;;0.55;0.30;;;24.00;46.30;;;;;;5014260;28;20105;-66
2022/11/14 07:56:03;;;;;;;1.27;0.60;;;23.80;47.40;;;;;;5016696;28;20026;-66
2022/11/14 07:58:31;;;;;;;0.30;0.30;;;23.60;47.60;;;;;;5008674;28;20549;-67
2022/11/14 08:01:02;;;;;;;2.42;0.40;;;23.50;47.80;;;;;;5004853;28;20137;-66
2022/11/14 08:03:30;;;;;;;0.90;0.30;;;23.40;49.20;;;;;;5009228;28;20084;-67
2022/11/14 08:06:08;;;;;;;0.40;0.30;;;23.20;49.80;;;;;;5017154;28;20044;-69
2022/11/14 08:08:35;;;;;;;2.40;0.50;;;23.00;51.40;;;;;;5004917;28;20438;-69
2022/11/14 08:11:03;;;;;;;0.82;0.32;;;22.90;51.60;;;;;;5015654;28;20038;-69
2022/11/14 08:13:31;;;;;;;2.45;0.82;;;22.70;51.90;;;;;;5004824;28;20537;-70
2022/11/14 08:16:01;;;;;;;0.95;0.50;;;22.60;52.70;;;;;;5005486;28;20057;-69
2022/11/14 08:18:28;;;;;;;1.00;0.38;;;22.50;52.20;;;;;;5009147;28;20025;-68
2022/11/14 08:20:56;;;;;;;1.27;0.38;;;22.30;52.50;;;;;;5006578;28;20030;-68
2022/11/14 08:23:23;;;;;;;0.82;0.43;;;22.10;53.20;;;;;;5009577;28;20033;-68
2022/11/14 08:25:51;;;;;;;6.50;0.40;;;22.00;53.30;;;;;;5003121;28;20099;-68
2022/11/14 08:28:18;;;;;;;2.80;0.50;;;21.80;54.10;;;;;;5015839;28;20108;-68
2022/11/14 08:30:45;;;;;;;0.57;0.30;;;21.70;54.90;;;;;;5010743;28;20018;-67
2022/11/14 08:33:12;;;;;;;1.60;0.40;;;21.60;54.30;;;;;;5006838;28;20054;-68
2022/11/14 08:35:40;;;;;;;0.40;0.30;;;21.50;54.70;;;;;;5006568;28;20033;-68
2022/11/14 08:38:07;;;;;;;1.67;0.30;;;21.40;55.20;;;;;;5010282;28;20680;-68
2022/11/14 08:40:34;;;;;;;2.85;0.55;;;21.20;56.00;;;;;;5012960;28;20060;-68
2022/11/14 08:43:02;;;;;;;0.50;0.38;;;21.10;56.20;;;;;;5017883;28;20489;-68
2022/11/14 08:45:30;;;;;;;0.47;0.20;;;20.90;56.60;;;;;;5013166;28;20030;-68
2022/11/14 08:47:57;;;;;;;1.60;0.30;;;20.80;56.40;;;;;;5021333;28;20040;-68
2022/11/14 08:50:24;;;;;;;0.40;0.20;;;20.80;56.50;;;;;;5008077;28;20397;-69
2022/11/14 08:52:52;;;;;;;0.88;0.35;;;20.70;57.30;;;;;;5013937;28;20159;-64
2022/11/14 08:55:20;;;;;;;0.88;0.40;;;20.70;58.10;;;;;;5016274;28;20036;-64
2022/11/14 08:57:47;;;;;;;1.05;0.30;;;20.60;58.00;;;;;;5005346;28;20124;-68
2022/11/14 09:00:15;;;;;;;0.57;0.32;;;20.50;58.20;;;;;;5003355;28;20026;-68
2022/11/14 09:02:42;;;;;;;1.98;0.40;;;20.40;59.30;;;;;;5002970;28;20034;-68
2022/11/14 09:05:10;;;;;;;1.05;0.40;;;20.30;59.30;;;;;;5004226;28;20026;-66
2022/11/14 09:07:37;;;;;;;5.75;0.40;;;20.20;59.80;;;;;;5002927;28;20023;-67
2022/11/14 09:10:05;;;;;;;2.85;0.50;;;20.10;60.40;;;;;;5005704;28;20064;-67
2022/11/14 09:12:33;;;;;;;4.43;1.15;;;20.00;60.60;;;;;;5007380;28;20041;-67
2022/11/14 09:15:00;;;;;;;0.20;0.20;;;20.00;60.40;;;;;;5016264;28;20025;-67
2022/11/14 09:17:27;;;;;;;1.45;0.38;;;19.90;60.90;;;;;;5017050;28;20045;-66
2022/11/14 09:19:55;;;;;;;0.80;0.30;;;19.80;61.30;;;;;;5007900;28;20034;-67
2022/11/14 09:22:22;;;;;;;0.32;0.30;;;19.70;61.70;;;;;;5012551;28;20037;-66
2022/11/14 09:24:50;;;;;;;1.48;0.38;;;19.60;61.80;;;;;;5013326;28;20022;-68
2022/11/14 09:27:18;;;;;;;2.08;0.35;;;19.40;62.00;;;;;;5008639;28;20065;-67
2022/11/14 09:29:45;;;;;;;4.38;0.30;;;19.30;63.20;;;;;;5024231;28;20045;-66
2022/11/14 09:32:12;;;;;;;0.98;0.40;;;19.20;64.20;;;;;;5010222;28;20045;-67
2022/11/14 09:34:42;;;;;;;0.47;0.30;;;19.20;65.60;;;;;;5024444;28;20022;-67
2022/11/14 09:37:09;;;;;;;3.97;0.55;;;19.00;66.40;;;;;;5014825;28;20045;-67
2022/11/14 09:39:39;;;;;;;2.20;0.65;;;19.00;66.70;;;;;;5011094;28;20060;-67
2022/11/14 09:42:33;;;;;;;3.92;0.65;;;18.90;68.00;;;;;;5014108;28;20038;-67
2022/11/14 09:45:12;;;;;;;4.80;0.50;;;18.70;68.70;;;;;;5020817;28;20032;-67
2022/11/14 09:47:50;;;;;;;6.25;0.90;;;18.50;70.20;;;;;;5017207;28;20030;-66
2022/11/14 09:50:32;;;;;;;10.35;1.27;;;18.30;70.20;;;;;;5014650;28;20088;-68
2022/11/14 09:53:04;;;;;;;3.80;0.73;;;18.20;71.20;;;;;;5005735;28;20033;-68
2022/11/14 09:55:33;;;;;;;10.32;0.70;;;18.00;72.50;;;;;;5006878;28;20054;-68
2022/11/14 09:58:04;;;;;;;7.97;1.17;;;17.90;73.60;;;;;;5025467;28;20025;-68
2022/11/14 10:01:04;;;;;;;2.45;0.68;;;17.80;75.30;;;;;;5012954;28;20505;-68
2022/11/14 10:03:46;;;;;;;4.22;0.73;;;17.70;76.80;;;;;;5007617;28;20524;-68
2022/11/14 10:06:26;;;;;;;3.97;0.65;;;17.70;79.00;;;;;;5007207;28;20026;-68
2022/11/14 10:09:11;;;;;;;1.00;0.65;;;17.80;77.10;;;;;;5012933;28;20111;-68
2022/11/14 10:11:58;;;;;;;1.85;0.43;;;17.80;77.00;;;;;;5003370;28;20057;-67
2022/11/14 10:14:26;;;;;;;1.48;0.55;;;17.80;77.60;;;;;;5006012;28;20049;-67
2022/11/14 10:17:20;;;;;;;2.22;0.57;;;17.80;77.00;;;;;;5016096;28;20031;-68
2022/11/14 10:19:55;;;;;;;1.15;0.90;;;17.70;78.30;;;;;;5017073;28;20033;-67
2022/11/14 10:22:56;;;;;;;1.02;0.40;;;17.70;78.70;;;;;;5021832;28;20076;-68
2022/11/14 10:25:40;;;;;;;2.03;0.60;;;18.00;75.90;;;;;;5013114;28;20038;-67
2022/11/14 10:28:25;;;;;;;1.77;0.35;;;18.10;75.20;;;;;;5010466;28;20030;-67
2022/11/14 10:31:26;;;;;;;0.45;0.30;;;18.10;74.90;;;;;;5023198;28;20501;-67
2022/11/14 10:33:59;;;;;;;0.30;0.20;;;18.20;74.80;;;;;;5006728;28;20088;-67
2022/11/14 10:37:03;;;;;;;2.53;0.38;;;18.20;74.50;;;;;;5004874;28;20062;-67
2022/11/14 10:39:41;;;;;;;1.25;0.30;;;18.10;76.00;;;;;;5007533;28;20038;-67
2022/11/14 10:42:28;;;;;;;1.23;0.63;;;18.00;76.70;;;;;;5024441;28;20115;-67
2022/11/14 10:45:03;;;;;;;1.00;0.50;;;18.00;79.20;;;;;;5006828;28;20062;-67
2022/11/14 10:47:39;;;;;;;0.68;0.35;;;18.00;78.30;;;;;;5006413;28;20034;-67
2022/11/14 10:50:23;;;;;;;1.73;0.65;;;18.00;79.20;;;;;;5008716;28;20034;-67
2022/11/14 10:52:58;;;;;;;3.05;0.65;;;18.00;80.00;;;;;;5005294;28;20053;-67
2022/11/14 10:55:25;;;;;;;0.57;0.40;;;18.00;80.60;;;;;;5004538;28;20037;-67
2022/11/14 10:57:52;;;;;;;0.32;0.30;;;17.90;81.20;;;;;;5007679;28;20026;-67
2022/11/14 11:00:24;;;;;;;0.52;0.43;;;17.90;82.60;;;;;;5009520;28;20036;-67
2022/11/14 11:02:54;;;;;;;2.08;0.45;;;18.00;81.90;;;;;;5008693;28;20052;-67
2022/11/14 11:05:24;;;;;;;1.48;0.40;;;18.00;81.70;;;;;;5009496;28;20040;-67
2022/11/14 11:13:40;;;;;;;1.00;0.32;;;18.00;83.20;;;;;;5011634;28;20119;-63
2022/11/14 11:16:11;;;;;;;2.15;1.00;;;18.00;83.20;;;;;;5009808;28;20041;-63
2022/11/14 11:18:38;;;;;;;1.02;0.50;;;18.00;83.70;;;;;;5006812;28;20075;-62
2022/11/14 11:21:07;;;;;;;4.18;0.40;;;18.00;82.90;;;;;;5017386;28;20021;-62
2022/11/14 11:23:36;;;;;;;0.68;0.47;;;18.00;83.90;;;;;;5014319;28;20091;-62
2022/11/14 11:26:15;;;;;;;1.85;0.63;;;18.00;83.80;;;;;;5014409;28;20029;-62
2022/11/14 11:28:42;;;;;;;1.35;0.55;;;18.00;83.70;;;;;;5016008;28;20355;-62
2022/11/14 11:31:11;;;;;;;1.83;0.57;;;18.00;83.40;;;;;;5008834;28;20080;-62
2022/11/14 11:33:39;;;;;;;2.58;0.40;;;17.90;83.60;;;;;;5015030;28;20386;-63
2022/11/14 11:36:12;;;;;;;0.77;0.40;;;18.00;82.20;;;;;;5007954;28;20088;-65
2022/11/14 11:38:40;;;;;;;0.68;0.30;;;18.00;82.20;;;;;;4999184;28;20038;-62
2022/11/14 11:41:26;;;;;;;0.40;0.40;;;18.00;82.00;;;;;;5005810;28;20085;-63
2022/11/14 11:44:11;;;;;;;0.10;0.10;;;18.00;82.10;;;;;;5014940;28;20037;-62
2022/11/14 11:46:51;;;;;;;0.90;0.50;;;18.00;82.40;;;;;;5008543;28;20029;-62
2022/11/14 11:49:30;;;;;;;1.45;0.25;;;18.00;82.70;;;;;;4991301;28;20037;-63
2022/11/14 11:52:04;;;;;;;0.73;0.30;;;17.80;82.60;;;;;;5007131;28;20061;-62
2022/11/14 11:54:45;;;;;;;2.75;0.40;;;17.70;83.80;;;;;;5007590;28;20072;-63
2022/11/14 11:57:17;;;;;;;1.13;0.50;;;17.60;84.60;;;;;;4991511;28;20057;-63
2022/11/14 11:59:49;;;;;;;1.13;0.50;;;17.40;86.90;;;;;;5007559;28;20089;-63
2022/11/14 12:02:27;;;;;;;2.67;0.70;;;17.30;87.40;;;;;;5005623;28;20108;-63
2022/11/14 12:04:57;;;;;;;0.65;0.45;;;17.20;88.20;;;;;;5007518;28;20072;-63
2022/11/14 12:07:44;;;;;;;1.52;0.50;;;17.10;89.30;;;;;;5007162;28;20116;-63
2022/11/14 12:10:23;;;;;;;1.38;0.55;;;17.10;89.90;;;;;;5006437;28;20041;-63
2022/11/14 12:13:25;;;;;;;2.13;0.40;;;17.00;90.10;;;;;;5007472;28;20402;-63
2022/11/14 12:16:21;;;;;;;1.27;0.60;;;17.00;90.40;;;;;;5007023;28;20058;-63
2022/11/14 12:18:57;;;;;;;2.08;0.50;;;17.00;90.70;;;;;;5007471;28;20038;-63
2022/11/14 12:21:24;;;;;;;1.42;0.40;;;16.90;90.50;;;;;;5006889;28;20046;-63
2022/11/14 12:24:25;;;;;;;0.43;0.35;;;16.80;91.10;;;;;;5007556;28;20037;-63
2022/11/14 12:27:01;;;;;;;1.98;0.50;;;16.80;91.00;;;;;;5006890;28;20026;-63
2022/11/14 12:29:28;;;;;;;0.70;0.40;;;16.80;91.30;;;;;;5007221;28;20036;-63
2022/11/14 12:32:05;;;;;;;0.35;0.30;;;16.70;91.50;;;;;;5001239;28;20058;-64
2022/11/14 12:34:40;;;;;;;0.65;0.20;;;16.60;91.40;;;;;;5005220;28;20029;-63
2022/11/14 12:37:18;;;;;;;0.50;0.30;;;16.50;91.90;;;;;;5011301;28;20033;-64
2022/11/14 12:39:59;;;;;;;1.77;0.28;;;16.50;91.80;;;;;;5018052;28;20455;-63
2022/11/14 12:42:27;;;;;;;1.80;0.30;;;16.50;91.80;;;;;;5009731;28;20042;-63
2022/11/14 12:44:54;;;;;;;0.65;0.20;;;16.30;92.10;;;;;;5009762;28;20057;-63
2022/11/14 12:47:23;;;;;;;0.65;0.30;;;16.30;92.70;;;;;;5018378;28;20037;-63
2022/11/14 12:49:55;;;;;;;0.65;0.20;;;16.20;93.00;;;;;;5024939;28;20030;-63
2022/11/14 12:52:43;;;;;;;0.50;0.40;;;16.20;93.10;;;;;;5009601;28;20103;-63
2022/11/14 12:55:25;;;;;;;1.70;0.47;;;16.20;93.20;;;;;;5013903;28;20084;-63
2022/11/14 12:58:17;;;;;;;0.30;0.30;;;16.10;93.60;;;;;;5018153;28;20048;-66
2022/11/14 13:00:49;;;;;;;1.33;0.30;;;16.00;94.00;;;;;;5012969;28;20037;-64
2022/11/14 13:03:44;;;;;;;2.20;0.32;;;16.00;94.00;;;;;;5008326;28;20438;-63
2022/11/14 13:06:19;;;;;;;2.80;0.50;;;15.80;94.20;;;;;;5009726;28;20104;-63
2022/11/14 13:08:53;;;;;;;;;;;15.80;94.70;;;;;;5012987;28;20504;-63
2022/11/14 13:23:27;;;;;;;1.90;0.38;;;15.70;96.10;;;;;;5011969;28;20060;-63
2022/11/14 13:26:13;;;;;;;0.38;0.30;;;15.70;96.00;;;;;;5009883;28;20033;-63
2022/11/14 13:28:50;;;;;;;1.42;0.40;;;15.60;96.00;;;;;;5011737;28;20030;-63
2022/11/14 13:31:22;;;;;;;3.22;0.50;;;15.50;96.00;;;;;;5011701;28;20041;-63
2022/11/14 13:34:00;;;;;;;0.82;0.38;;;15.50;96.40;;;;;;4995110;28;20030;-63
2022/11/14 13:36:36;;;;;;;2.10;0.50;;;15.40;97.00;;;;;;5009331;28;20061;-63